Time;durP1;ratioP1;P1;durP2;ratioP2;P2;SDS_P1;SDS_P2;PMS_P1;PMS_P2;Temp;Humidity;BMP_temperature;BMP_pressure;BME280_temperature;BME280_humidity;BME280_pressure;Samples;Min_cycle;Max_cycle;Signal;HPM_P1;HPM_P2
2023/01/19 00:00:14;;;;;;;18.88;10.60;;;2.10;99.90;;;;;;5030455;28;20038;-65
2023/01/19 00:02:40;;;;;;;18.42;10.27;;;2.60;99.90;;;;;;5026066;28;20492;-64
2023/01/19 00:05:06;;;;;;;20.95;10.73;;;2.30;99.90;;;;;;5015269;28;20073;-65
2023/01/19 00:07:32;;;;;;;20.13;11.02;;;2.50;99.90;;;;;;5023952;28;20776;-65
2023/01/19 00:09:58;;;;;;;20.10;11.07;;;2.10;99.90;;;;;;5021540;28;20057;-65
2023/01/19 00:12:24;;;;;;;21.27;11.07;;;2.50;99.90;;;;;;5027120;28;20037;-65
2023/01/19 00:14:50;;;;;;;17.90;9.85;;;2.00;99.90;;;;;;5028299;28;20084;-65
2023/01/19 00:17:17;;;;;;;18.33;9.95;;;2.20;99.90;;;;;;5022192;28;20061;-67
2023/01/19 00:19:43;;;;;;;19.27;9.60;;;2.50;99.90;;;;;;5025389;28;20429;-65
2023/01/19 00:22:08;;;;;;;18.25;9.88;;;2.30;99.90;;;;;;5032440;28;20068;-65
2023/01/19 00:24:34;;;;;;;16.38;8.73;;;2.40;99.90;;;;;;5031281;28;20044;-66
2023/01/19 00:27:02;;;;;;;17.40;8.77;;;2.50;99.90;;;;;;5033341;28;20057;-65
2023/01/19 00:29:32;;;;;;;15.88;8.98;;;2.50;99.90;;;;;;5021404;28;20034;-65
2023/01/19 00:31:59;;;;;;;18.25;9.23;;;2.60;99.90;;;;;;5028577;28;20038;-65
2023/01/19 00:34:25;;;;;;;16.67;9.25;;;2.50;99.90;;;;;;5030609;28;20128;-66
2023/01/19 00:36:50;;;;;;;18.77;9.30;;;2.60;99.90;;;;;;5032734;28;20045;-67
2023/01/19 00:39:16;;;;;;;17.58;8.77;;;2.60;99.90;;;;;;5026552;28;20048;-65
2023/01/19 00:44:25;;;;;;;14.20;7.50;;;2.20;99.90;;;;;;5026622;28;20041;-65
2023/01/19 00:46:51;;;;;;;12.73;7.63;;;2.10;99.90;;;;;;5031194;28;20033;-65
2023/01/19 00:49:17;;;;;;;13.63;7.45;;;2.60;99.90;;;;;;5029528;28;20065;-65
2023/01/19 00:51:43;;;;;;;11.73;6.80;;;2.00;99.90;;;;;;5031436;28;20076;-65
2023/01/19 00:54:09;;;;;;;8.70;5.28;;;2.40;99.90;;;;;;5023819;28;20499;-64
2023/01/19 00:56:35;;;;;;;7.47;5.15;;;2.00;99.90;;;;;;5029174;28;20539;-64
2023/01/19 00:59:00;;;;;;;8.65;4.85;;;2.40;99.90;;;;;;5021821;28;20068;-67
2023/01/19 01:01:26;;;;;;;6.53;4.57;;;1.90;99.90;;;;;;5017779;28;20065;-65
2023/01/19 01:03:52;;;;;;;9.00;4.80;;;2.50;99.90;;;;;;5025717;28;20043;-65
2023/01/19 01:06:19;;;;;;;8.45;4.57;;;2.10;99.90;;;;;;5030679;28;20068;-64
2023/01/19 01:08:44;;;;;;;8.45;4.63;;;2.00;99.90;;;;;;5022160;28;20757;-65
2023/01/19 01:11:10;;;;;;;8.02;4.43;;;2.40;99.90;;;;;;5029865;28;20041;-65
2023/01/19 01:13:35;;;;;;;7.38;4.47;;;2.30;99.90;;;;;;5026369;28;20393;-67
2023/01/19 01:16:01;;;;;;;7.80;4.45;;;1.90;99.90;;;;;;5030699;28;20046;-65
2023/01/19 01:18:26;;;;;;;7.63;4.72;;;1.90;99.90;;;;;;5027175;28;20041;-65
2023/01/19 01:20:58;;;;;;;8.10;4.85;;;2.20;99.90;;;;;;5024777;28;20100;-66
2023/01/19 01:23:24;;;;;;;6.95;4.57;;;2.00;99.90;;;;;;5029230;28;20041;-65
2023/01/19 01:25:50;;;;;;;6.82;3.92;;;1.70;99.90;;;;;;5022565;28;20048;-65
2023/01/19 01:28:15;;;;;;;8.45;4.38;;;2.20;99.90;;;;;;5026037;28;20042;-65
2023/01/19 01:30:42;;;;;;;8.27;3.85;;;2.10;99.90;;;;;;5025368;28;20386;-65
2023/01/19 01:33:08;;;;;;;7.32;4.18;;;2.20;99.90;;;;;;5024795;28;20045;-65
2023/01/19 01:35:33;;;;;;;8.73;4.82;;;2.20;99.90;;;;;;5027549;28;20045;-64
2023/01/19 01:38:00;;;;;;;6.85;3.92;;;2.00;99.90;;;;;;5018938;28;20370;-65
2023/01/19 01:40:27;;;;;;;7.07;4.20;;;1.60;99.90;;;;;;5014709;28;20037;-65
2023/01/19 01:42:53;;;;;;;7.60;4.00;;;1.80;99.90;;;;;;5027366;28;20812;-66
2023/01/19 01:45:33;;;;;;;7.63;4.20;;;2.00;99.90;;;;;;5017611;28;20042;-65
2023/01/19 01:48:07;;;;;;;10.48;4.50;;;1.80;99.90;;;;;;5026135;28;20049;-65
2023/01/19 01:50:37;;;;;;;8.88;4.68;;;1.50;99.90;;;;;;5023777;28;20041;-65
2023/01/19 01:53:12;;;;;;;7.90;4.82;;;2.10;99.90;;;;;;5031707;28;20106;-65
2023/01/19 01:55:47;;;;;;;10.70;5.95;;;2.10;99.90;;;;;;5023222;28;20041;-65
2023/01/19 01:58:13;;;;;;;11.55;6.20;;;2.00;99.90;;;;;;5024879;28;20045;-65
2023/01/19 02:03:25;;;;;;;12.70;6.50;;;2.00;99.90;;;;;;5029016;28;20065;-65
2023/01/19 02:05:55;;;;;;;16.63;8.25;;;2.00;99.90;;;;;;5025515;28;20056;-65
2023/01/19 02:13:55;;;;;;;14.93;8.65;;;2.10;99.90;;;;;;5026095;28;20103;-65
2023/01/19 02:16:20;;;;;;;15.93;8.63;;;2.00;99.90;;;;;;5009135;28;20037;-66
2023/01/19 02:18:46;;;;;;;19.58;9.38;;;1.80;99.90;;;;;;5025971;28;20041;-65
2023/01/19 02:21:17;;;;;;;16.55;9.00;;;2.10;99.90;;;;;;5021166;28;20362;-64
2023/01/19 02:23:54;;;;;;;19.40;9.65;;;1.60;99.90;;;;;;5022945;28;20037;-64
2023/01/19 02:26:23;;;;;;;17.45;9.32;;;1.90;99.90;;;;;;5027370;28;20061;-65
2023/01/19 02:28:54;;;;;;;19.80;10.27;;;2.10;99.90;;;;;;5024142;28;20124;-64
2023/01/19 02:31:20;;;;;;;21.50;10.90;;;2.10;99.90;;;;;;5024986;28;20029;-64
2023/01/19 02:33:45;;;;;;;21.65;10.27;;;2.10;99.90;;;;;;5027879;28;20049;-64
2023/01/19 02:36:14;;;;;;;20.70;10.73;;;1.90;99.90;;;;;;5021019;28;20041;-64
2023/01/19 02:38:40;;;;;;;21.17;11.07;;;2.00;99.90;;;;;;5022869;28;20594;-65
2023/01/19 02:41:08;;;;;;;21.98;11.45;;;2.20;99.90;;;;;;5026499;28;20046;-64
2023/01/19 02:43:35;;;;;;;23.92;12.25;;;1.90;99.90;;;;;;5021547;28;20112;-64
2023/01/19 02:46:02;;;;;;;27.80;13.48;;;1.70;99.90;;;;;;5005149;28;20077;-64
2023/01/19 02:48:27;;;;;;;23.48;11.73;;;1.80;99.90;;;;;;5020863;28;20125;-65
2023/01/19 02:51:03;;;;;;;25.88;11.98;;;1.70;99.90;;;;;;5020959;28;20140;-66
2023/01/19 02:53:31;;;;;;;24.10;13.50;;;1.60;99.90;;;;;;5021798;28;20048;-65
2023/01/19 02:56:27;;;;;;;24.40;14.13;;;2.10;99.90;;;;;;5025243;28;20099;-65
2023/01/19 02:59:09;;;;;;;27.45;14.30;;;1.60;99.90;;;;;;5016634;28;20124;-66
2023/01/19 03:01:57;;;;;;;33.22;15.70;;;1.70;99.90;;;;;;5021433;28;20626;-65
2023/01/19 03:04:46;;;;;;;30.45;15.90;;;2.00;99.90;;;;;;5024275;28;20044;-64
2023/01/19 03:07:56;;;;;;;29.95;14.43;;;2.00;99.90;;;;;;5023421;28;22166;-65
2023/01/19 03:10:43;;;;;;;30.48;16.08;;;1.70;99.90;;;;;;5000061;28;20487;-64
2023/01/19 03:13:14;;;;;;;29.52;15.75;;;2.20;99.90;;;;;;5024016;28;21921;-64
2023/01/19 03:15:55;;;;;;;34.67;16.05;;;1.70;99.90;;;;;;5024201;28;20065;-65
2023/01/19 03:18:25;;;;;;;33.25;15.98;;;1.70;99.90;;;;;;5022621;28;20366;-65
2023/01/19 03:20:53;;;;;;;30.92;15.23;;;1.70;99.90;;;;;;5017863;28;20046;-65
2023/01/19 03:23:20;;;;;;;30.13;15.00;;;1.70;99.90;;;;;;5025361;28;20126;-64
2023/01/19 03:25:48;;;;;;;29.77;15.57;;;2.10;99.90;;;;;;5023176;28;20042;-65
2023/01/19 03:28:16;;;;;;;29.38;14.70;;;1.90;99.90;;;;;;5030502;28;20591;-65
2023/01/19 03:30:45;;;;;;;32.65;15.48;;;2.30;99.90;;;;;;5025035;28;20065;-65
2023/01/19 03:33:26;;;;;;;31.00;15.98;;;1.70;99.90;;;;;;5029568;28;20382;-65
2023/01/19 03:35:57;;;;;;;29.38;15.23;;;2.30;99.90;;;;;;5030409;28;20041;-65
2023/01/19 03:38:26;;;;;;;26.92;14.65;;;2.10;99.90;;;;;;5028836;28;20045;-65
2023/01/19 03:40:57;;;;;;;29.20;14.45;;;1.70;99.90;;;;;;5021688;28;20428;-65
2023/01/19 03:43:24;;;;;;;28.67;13.80;;;2.00;99.90;;;;;;5022910;28;20061;-65
2023/01/19 03:45:51;;;;;;;27.05;13.75;;;2.00;99.90;;;;;;5022717;28;20080;-65
2023/01/19 03:48:19;;;;;;;25.83;13.48;;;2.30;99.90;;;;;;5029546;28;20087;-65
2023/01/19 03:50:45;;;;;;;27.90;14.23;;;2.30;99.90;;;;;;5027621;28;20557;-65
2023/01/19 03:53:14;;;;;;;28.35;13.68;;;1.90;99.90;;;;;;5018265;28;20124;-65
2023/01/19 03:55:43;;;;;;;28.67;14.20;;;1.80;99.90;;;;;;5022018;28;20095;-66
2023/01/19 03:58:09;;;;;;;25.35;12.95;;;1.80;99.90;;;;;;5026317;28;20041;-65
2023/01/19 04:00:36;;;;;;;24.58;13.32;;;2.00;99.90;;;;;;5024981;28;20033;-65
2023/01/19 04:03:05;;;;;;;23.02;12.70;;;1.70;99.90;;;;;;5027754;28;20041;-65
2023/01/19 04:05:31;;;;;;;22.52;12.50;;;2.10;99.90;;;;;;5027157;28;20045;-66
2023/01/19 04:07:57;;;;;;;24.95;11.77;;;1.60;99.90;;;;;;5026242;28;20061;-65
2023/01/19 04:10:24;;;;;;;22.00;12.40;;;1.60;99.90;;;;;;5028299;28;20507;-65
2023/01/19 04:12:56;;;;;;;24.20;12.57;;;1.60;99.90;;;;;;5029901;28;20441;-65
2023/01/19 04:15:22;;;;;;;20.27;12.13;;;2.00;99.90;;;;;;5024095;28;20044;-65
2023/01/19 04:17:47;;;;;;;21.92;12.02;;;2.00;99.90;;;;;;5022660;28;20037;-64
2023/01/19 04:20:13;;;;;;;21.58;11.90;;;2.10;99.90;;;;;;5024137;28;20040;-65
2023/01/19 04:22:39;;;;;;;17.80;10.30;;;2.00;99.90;;;;;;5028527;28;20048;-65
2023/01/19 04:25:06;;;;;;;20.60;11.30;;;1.50;99.90;;;;;;5023695;28;20404;-65
2023/01/19 04:27:31;;;;;;;17.02;9.70;;;2.00;99.90;;;;;;5025640;28;20049;-66
2023/01/19 04:29:58;;;;;;;21.45;9.65;;;1.90;99.90;;;;;;5024924;28;20041;-65
2023/01/19 04:32:24;;;;;;;17.67;10.00;;;1.60;99.90;;;;;;5026356;28;20463;-65
2023/01/19 04:34:49;;;;;;;17.55;9.40;;;1.90;99.90;;;;;;5028134;28;20064;-65
2023/01/19 04:37:15;;;;;;;16.00;9.50;;;1.40;99.90;;;;;;5024259;28;20120;-65
2023/01/19 04:39:40;;;;;;;18.13;9.02;;;1.40;99.90;;;;;;5023917;28;20075;-66
2023/01/19 04:42:06;;;;;;;18.60;9.35;;;1.90;99.90;;;;;;5027940;28;20037;-65
2023/01/19 04:44:32;;;;;;;16.15;9.00;;;1.90;99.90;;;;;;5022164;28;20040;-65
2023/01/19 04:46:57;;;;;;;14.93;8.50;;;1.30;99.90;;;;;;5028327;28;20127;-65
2023/01/19 04:49:23;;;;;;;14.50;7.97;;;1.40;99.90;;;;;;5027298;28;20255;-65
2023/01/19 04:51:52;;;;;;;18.30;8.63;;;1.50;99.90;;;;;;5026778;28;20091;-65
2023/01/19 04:54:18;;;;;;;17.98;8.52;;;1.60;99.90;;;;;;5028663;28;20041;-65
2023/01/19 04:56:43;;;;;;;19.40;8.60;;;1.30;99.90;;;;;;5022234;28;20049;-65
2023/01/19 04:59:09;;;;;;;17.08;8.43;;;1.90;99.90;;;;;;5018393;28;20037;-65
2023/01/19 05:01:35;;;;;;;20.23;8.80;;;1.40;99.90;;;;;;5022992;28;20040;-65
2023/01/19 05:04:03;;;;;;;15.65;7.63;;;1.40;99.90;;;;;;5018814;28;20037;-66
2023/01/19 05:06:29;;;;;;;16.63;7.97;;;1.90;99.90;;;;;;5030461;28;20038;-65
2023/01/19 05:08:55;;;;;;;14.52;7.15;;;1.60;99.90;;;;;;5029024;28;20175;-65
2023/01/19 05:11:20;;;;;;;14.85;7.18;;;1.90;99.90;;;;;;5027883;28;20048;-65
2023/01/19 05:13:46;;;;;;;13.05;6.88;;;1.40;99.90;;;;;;5032348;28;20044;-65
2023/01/19 05:16:12;;;;;;;12.70;6.80;;;2.00;99.90;;;;;;5022054;28;20046;-65
2023/01/19 05:18:38;;;;;;;13.07;6.38;;;1.70;99.90;;;;;;5022455;28;20037;-65
2023/01/19 05:21:04;;;;;;;12.60;6.03;;;2.00;99.90;;;;;;5024779;28;20515;-65
2023/01/19 05:23:31;;;;;;;10.23;6.10;;;1.80;99.90;;;;;;5020874;28;20041;-66
2023/01/19 05:25:59;;;;;;;12.80;5.53;;;2.10;99.90;;;;;;5026768;28;20515;-66
2023/01/19 05:28:26;;;;;;;11.25;6.13;;;2.10;99.90;;;;;;5028471;28;20544;-66
2023/01/19 05:30:51;;;;;;;11.68;6.05;;;1.80;99.90;;;;;;5018332;28;20045;-66
2023/01/19 05:33:17;;;;;;;13.93;6.15;;;2.10;99.90;;;;;;5023916;28;20114;-65
2023/01/19 05:35:43;;;;;;;13.23;5.65;;;2.10;99.90;;;;;;5029817;28;20037;-65
2023/01/19 05:38:09;;;;;;;9.85;5.20;;;2.10;99.90;;;;;;5007303;28;20065;-65
2023/01/19 05:40:34;;;;;;;11.57;4.75;;;2.10;99.90;;;;;;5025997;28;20081;-66
2023/01/19 05:43:03;;;;;;;10.70;4.90;;;1.90;99.90;;;;;;5019473;28;20064;-65
2023/01/19 05:45:29;;;;;;;11.93;4.80;;;1.70;99.90;;;;;;5022910;28;20042;-66
2023/01/19 05:47:54;;;;;;;12.38;4.60;;;2.00;99.90;;;;;;5030367;28;20056;-66
2023/01/19 05:50:20;;;;;;;7.63;3.83;;;1.90;99.90;;;;;;5021896;28;20045;-66
2023/01/19 05:52:45;;;;;;;10.48;3.53;;;2.20;99.90;;;;;;5024906;28;20034;-65
2023/01/19 05:55:11;;;;;;;10.15;4.07;;;1.90;99.90;;;;;;5018987;28;20029;-65
2023/01/19 05:57:37;;;;;;;7.90;3.78;;;2.00;99.90;;;;;;5024830;28;20060;-65
2023/01/19 06:00:04;;;;;;;7.22;3.15;;;2.30;99.90;;;;;;5004195;28;20044;-65
2023/01/19 06:02:29;;;;;;;6.82;3.10;;;2.10;99.90;;;;;;5026852;28;20037;-66
2023/01/19 06:04:55;;;;;;;7.85;2.80;;;1.70;99.90;;;;;;5025274;28;20033;-65
2023/01/19 06:07:21;;;;;;;10.48;3.50;;;1.70;99.90;;;;;;5024509;28;20085;-65
2023/01/19 06:09:47;;;;;;;6.68;2.78;;;1.90;99.90;;;;;;5029032;28;20546;-66
2023/01/19 06:12:12;;;;;;;10.15;2.83;;;1.90;99.90;;;;;;5029322;28;20045;-66
2023/01/19 06:14:39;;;;;;;8.25;2.53;;;1.70;99.90;;;;;;5022694;28;20041;-66
2023/01/19 06:17:05;;;;;;;6.55;2.42;;;1.70;99.90;;;;;;5028784;28;20050;-66
2023/01/19 06:19:31;;;;;;;7.28;2.33;;;1.80;99.90;;;;;;5027458;28;20048;-66
2023/01/19 06:21:57;;;;;;;12.00;3.17;;;2.10;99.90;;;;;;5025828;28;20037;-65
2023/01/19 06:24:24;;;;;;;7.55;2.75;;;2.00;99.90;;;;;;5021479;28;20033;-65
2023/01/19 06:26:50;;;;;;;8.73;3.65;;;2.10;99.90;;;;;;5017660;28;20040;-65
2023/01/19 06:29:15;;;;;;;6.40;2.72;;;2.00;99.90;;;;;;5025844;28;20041;-65
2023/01/19 06:31:41;;;;;;;7.55;2.15;;;1.80;99.90;;;;;;5021127;28;20034;-65
2023/01/19 06:34:07;;;;;;;5.07;2.30;;;2.00;99.90;;;;;;5023066;28;20060;-65
2023/01/19 06:36:33;;;;;;;4.20;1.42;;;2.20;99.90;;;;;;5023216;28;20042;-65
2023/01/19 06:39:02;;;;;;;5.00;2.10;;;2.20;99.90;;;;;;5022347;28;20492;-65
2023/01/19 06:41:28;;;;;;;4.28;1.42;;;2.30;99.90;;;;;;5016591;28;20049;-66
2023/01/19 06:43:54;;;;;;;5.72;1.77;;;2.50;99.90;;;;;;5025696;28;20049;-66
2023/01/19 06:46:20;;;;;;;4.65;1.58;;;2.40;99.90;;;;;;5028955;28;20037;-65
2023/01/19 06:48:45;;;;;;;7.03;2.38;;;1.90;99.90;;;;;;5030064;28;20045;-65
2023/01/19 06:51:11;;;;;;;4.93;2.17;;;2.40;99.90;;;;;;5016546;28;20046;-65
2023/01/19 06:53:37;;;;;;;5.32;2.35;;;2.30;99.90;;;;;;5009418;28;20045;-65
2023/01/19 06:56:03;;;;;;;6.93;2.97;;;2.40;99.90;;;;;;5011518;28;20069;-66
2023/01/19 06:58:29;;;;;;;11.70;7.35;;;2.30;99.90;;;;;;5021694;28;20033;-65
2023/01/19 07:01:00;;;;;;;9.52;5.43;;;2.00;99.90;;;;;;5014931;28;20038;-65
2023/01/19 07:03:26;;;;;;;6.50;3.75;;;2.30;99.90;;;;;;5028224;28;20540;-66
2023/01/19 07:05:52;;;;;;;8.30;2.50;;;2.50;99.90;;;;;;5023794;28;20204;-65
2023/01/19 07:08:18;;;;;;;5.05;1.60;;;2.20;99.90;;;;;;5026720;28;20104;-66
2023/01/19 07:10:43;;;;;;;9.45;1.83;;;2.50;99.90;;;;;;5025014;28;20465;-65
2023/01/19 07:13:09;;;;;;;4.55;1.33;;;2.30;99.90;;;;;;5033917;28;20038;-65
2023/01/19 07:15:36;;;;;;;5.20;1.65;;;2.50;99.90;;;;;;5028504;28;20037;-65
2023/01/19 07:18:06;;;;;;;5.13;1.40;;;2.10;99.90;;;;;;5028605;28;20564;-65
2023/01/19 07:20:33;;;;;;;3.05;1.58;;;2.50;99.90;;;;;;5032359;28;20026;-65
2023/01/19 07:22:58;;;;;;;7.20;1.50;;;2.20;99.90;;;;;;5031624;28;20075;-66
2023/01/19 07:25:25;;;;;;;3.92;1.63;;;2.20;99.90;;;;;;5029128;28;20069;-65
2023/01/19 07:27:50;;;;;;;5.03;1.52;;;2.00;99.90;;;;;;5028649;28;20113;-65
2023/01/19 07:30:16;;;;;;;11.07;1.77;;;2.40;99.90;;;;;;5019166;28;20132;-65
2023/01/19 07:32:42;;;;;;;6.93;2.00;;;2.00;99.90;;;;;;5031958;28;20377;-65
2023/01/19 07:35:08;;;;;;;6.75;1.67;;;2.40;99.90;;;;;;5031814;28;20040;-65
2023/01/19 07:37:34;;;;;;;5.85;1.83;;;2.50;99.90;;;;;;5019911;28;20721;-65
2023/01/19 07:40:00;;;;;;;7.47;1.70;;;2.40;99.90;;;;;;5022352;28;20121;-66
2023/01/19 07:42:25;;;;;;;7.18;1.75;;;2.40;99.90;;;;;;5026140;28;20097;-66
2023/01/19 07:44:51;;;;;;;11.07;1.77;;;1.90;99.90;;;;;;5009865;28;20079;-66
2023/01/19 07:47:16;;;;;;;6.40;1.20;;;2.00;99.90;;;;;;5012607;28;20064;-66
2023/01/19 07:49:42;;;;;;;10.02;1.48;;;2.50;99.90;;;;;;5023180;28;20397;-66
2023/01/19 07:52:08;;;;;;;8.23;1.20;;;2.10;99.90;;;;;;5024198;28;20509;-67
2023/01/19 07:54:34;;;;;;;8.73;1.60;;;2.70;99.90;;;;;;5010718;28;20401;-66
2023/01/19 07:57:00;;;;;;;8.50;1.70;;;2.10;99.90;;;;;;5014521;28;20037;-66
2023/01/19 07:59:26;;;;;;;4.97;1.42;;;2.60;99.90;;;;;;5028321;28;20054;-66
2023/01/19 08:01:52;;;;;;;4.40;1.45;;;2.00;99.90;;;;;;5030732;28;20385;-65
2023/01/19 08:04:19;;;;;;;7.03;1.30;;;2.50;99.90;;;;;;5010477;28;20059;-65
2023/01/19 08:06:45;;;;;;;10.80;1.35;;;2.20;99.90;;;;;;5032163;28;20536;-67
2023/01/19 08:09:11;;;;;;;6.03;1.17;;;2.30;99.90;;;;;;5031178;28;20037;-66
2023/01/19 08:11:37;;;;;;;9.98;2.15;;;2.50;99.90;;;;;;5028290;28;20041;-66
2023/01/19 08:14:03;;;;;;;11.38;1.63;;;2.40;99.90;;;;;;5027725;28;20405;-65
2023/01/19 08:16:29;;;;;;;10.25;1.60;;;2.60;99.90;;;;;;5030067;28;20412;-66
2023/01/19 08:18:54;;;;;;;17.45;3.42;;;2.60;99.90;;;;;;5029770;28;20037;-66
2023/01/19 08:21:20;;;;;;;13.98;1.75;;;2.60;99.90;;;;;;5024433;28;20048;-65
2023/01/19 08:23:56;;;;;;;7.63;1.27;;;2.10;99.90;;;;;;5019139;28;20061;-66
2023/01/19 08:26:31;;;;;;;11.23;1.83;;;2.50;99.90;;;;;;5010662;28;20056;-65
2023/01/19 08:28:58;;;;;;;14.98;1.73;;;2.80;99.90;;;;;;5023435;28;20096;-66
2023/01/19 08:31:26;;;;;;;8.40;1.67;;;2.80;99.90;;;;;;5026423;28;20442;-66
2023/01/19 08:33:51;;;;;;;12.60;1.83;;;2.90;99.90;;;;;;5028897;28;20046;-66
2023/01/19 08:36:18;;;;;;;13.75;1.98;;;2.90;99.90;;;;;;5027551;28;20050;-66
2023/01/19 08:38:46;;;;;;;18.23;2.35;;;2.90;99.90;;;;;;5015401;28;20041;-66
2023/01/19 08:41:13;;;;;;;13.43;1.65;;;3.10;99.90;;;;;;5021940;28;20052;-65
2023/01/19 08:43:38;;;;;;;9.00;2.00;;;2.50;99.90;;;;;;5024874;28;20048;-65
2023/01/19 08:46:04;;;;;;;14.35;2.45;;;2.90;99.90;;;;;;5029191;28;20033;-66
2023/01/19 08:48:30;;;;;;;15.45;2.38;;;2.60;99.90;;;;;;5028683;28;20088;-66
2023/01/19 08:50:56;;;;;;;14.38;2.33;;;2.40;99.90;;;;;;5030416;28;20584;-65
2023/01/19 08:53:25;;;;;;;7.90;1.80;;;2.40;99.90;;;;;;5027595;28;20037;-66
2023/01/19 08:55:56;;;;;;;14.50;2.22;;;2.30;99.90;;;;;;5032756;28;20051;-66
2023/01/19 08:58:22;;;;;;;11.15;2.22;;;2.80;99.90;;;;;;5031591;28;20105;-65
2023/01/19 09:00:51;;;;;;;12.27;2.10;;;2.20;99.90;;;;;;5028043;28;20037;-65
2023/01/19 09:03:17;;;;;;;15.43;2.13;;;2.40;99.90;;;;;;5031710;28;20468;-66
2023/01/19 09:05:43;;;;;;;14.75;1.85;;;2.90;99.90;;;;;;5031216;28;20040;-66
2023/01/19 09:08:11;;;;;;;16.92;2.28;;;2.80;99.90;;;;;;5032373;28;20518;-66
2023/01/19 09:10:42;;;;;;;11.18;1.80;;;2.60;99.90;;;;;;5031979;28;20049;-66
2023/01/19 09:13:10;;;;;;;18.20;3.20;;;2.60;99.90;;;;;;5031855;28;20125;-66
2023/01/19 09:15:39;;;;;;;10.05;1.67;;;2.60;99.90;;;;;;5029156;28;20050;-66
2023/01/19 09:18:09;;;;;;;8.87;1.80;;;3.10;99.90;;;;;;5030925;28;20037;-66
2023/01/19 09:20:37;;;;;;;23.20;3.45;;;3.10;99.90;;;;;;5031055;28;20296;-66
2023/01/19 09:23:03;;;;;;;19.10;2.35;;;2.70;99.90;;;;;;5029071;28;20112;-65
2023/01/19 09:25:29;;;;;;;10.50;1.73;;;2.70;99.90;;;;;;5029189;28;20042;-66
2023/01/19 09:27:55;;;;;;;11.23;2.40;;;3.00;99.90;;;;;;5030496;28;20046;-65
2023/01/19 09:30:20;;;;;;;10.68;1.73;;;3.20;99.90;;;;;;5030903;28;20040;-66
2023/01/19 09:32:46;;;;;;;16.77;2.85;;;2.90;99.90;;;;;;5030444;28;20065;-66
2023/01/19 09:35:12;;;;;;;14.18;2.33;;;2.90;99.90;;;;;;5029032;28;20388;-66
2023/01/19 09:37:38;;;;;;;16.75;2.53;;;3.10;99.90;;;;;;5028510;28;20048;-66
2023/01/19 09:40:05;;;;;;;23.30;3.13;;;3.00;99.90;;;;;;5023753;28;20030;-66
2023/01/19 09:42:52;;;;;;;23.00;3.90;;;3.20;99.90;;;;;;5026716;28;20503;-65
2023/01/19 09:45:44;;;;;;;11.60;2.20;;;3.00;99.90;;;;;;5020061;28;20392;-66
2023/01/19 09:48:34;;;;;;;13.75;2.17;;;2.90;99.90;;;;;;5030020;28;20541;-65
2023/01/19 09:51:04;;;;;;;12.63;2.13;;;3.00;99.90;;;;;;5019364;28;20064;-65
2023/01/19 09:53:32;;;;;;;17.70;2.17;;;2.70;99.90;;;;;;5025027;28;20057;-65
2023/01/19 09:55:57;;;;;;;8.07;1.52;;;3.00;99.90;;;;;;5031654;28;20299;-66
2023/01/19 09:58:23;;;;;;;13.00;2.42;;;3.00;99.90;;;;;;5029406;28;20041;-65
2023/01/19 10:01:00;;;;;;;9.82;2.22;;;2.80;99.90;;;;;;5026587;28;20428;-64
2023/01/19 10:03:25;;;;;;;17.73;4.47;;;3.00;99.90;;;;;;5028298;28;20057;-66
2023/01/19 10:05:57;;;;;;;17.33;2.50;;;3.00;99.90;;;;;;5027724;28;20057;-65
2023/01/19 10:09:06;;;;;;;17.30;3.03;;;2.90;99.90;;;;;;5030431;28;20135;-65
2023/01/19 10:11:53;;;;;;;16.50;2.10;;;2.80;99.90;;;;;;5016978;28;20049;-65
2023/01/19 10:14:30;;;;;;;11.20;2.28;;;2.80;99.90;;;;;;5028519;28;20042;-65
2023/01/19 10:17:36;;;;;;;15.13;2.50;;;3.20;99.90;;;;;;5029526;28;20046;-66
2023/01/19 10:20:04;;;;;;;15.60;2.75;;;3.20;99.90;;;;;;5010705;28;20045;-65
2023/01/19 10:22:32;;;;;;;18.92;3.08;;;3.10;99.90;;;;;;5028764;28;20040;-66
2023/01/19 10:25:00;;;;;;;13.77;2.38;;;3.40;99.90;;;;;;5030356;28;20056;-65
2023/01/19 10:27:30;;;;;;;13.27;4.60;;;3.20;99.90;;;;;;5029868;28;20156;-66
2023/01/19 10:29:57;;;;;;;15.07;2.70;;;3.20;99.90;;;;;;5025282;28;20084;-66
2023/01/19 10:32:25;;;;;;;14.23;2.70;;;3.30;99.90;;;;;;5026822;28;20166;-64
2023/01/19 10:34:52;;;;;;;9.95;2.28;;;3.40;99.90;;;;;;5026686;28;20037;-67
2023/01/19 10:37:29;;;;;;;10.80;2.28;;;3.50;99.90;;;;;;5030522;28;20358;-65
2023/01/19 10:39:59;;;;;;;24.25;2.72;;;3.60;99.90;;;;;;5029727;28;20041;-65
2023/01/19 10:42:28;;;;;;;9.23;2.17;;;3.50;99.90;;;;;;5028551;28;20400;-66
2023/01/19 10:44:54;;;;;;;8.38;1.77;;;3.60;99.90;;;;;;5029124;28;20051;-66
2023/01/19 10:47:26;;;;;;;16.70;2.17;;;3.50;99.90;;;;;;5027060;28;20050;-66
2023/01/19 10:49:52;;;;;;;9.60;1.83;;;3.80;99.90;;;;;;5026943;28;20045;-66
2023/01/19 10:52:36;;;;;;;11.73;2.03;;;3.90;99.90;;;;;;5026623;28;20056;-66
2023/01/19 10:55:03;;;;;;;11.48;1.55;;;3.80;99.90;;;;;;5022950;28;20050;-65
2023/01/19 10:57:42;;;;;;;7.93;1.63;;;3.70;99.90;;;;;;5014673;28;20133;-66
2023/01/19 11:00:28;;;;;;;14.18;2.08;;;3.80;99.90;;;;;;5019755;28;20148;-65
2023/01/19 11:02:53;;;;;;;11.52;2.30;;;3.70;99.90;;;;;;5019891;28;20050;-66
2023/01/19 11:05:28;;;;;;;10.75;1.63;;;3.70;99.90;;;;;;5017065;28;20088;-66
2023/01/19 11:07:54;;;;;;;16.20;3.08;;;4.10;99.90;;;;;;5017220;28;20053;-66
2023/01/19 11:10:28;;;;;;;7.90;1.60;;;3.90;99.90;;;;;;5024579;28;20044;-67
2023/01/19 11:13:02;;;;;;;12.65;2.75;;;3.90;99.90;;;;;;5025618;28;20056;-66
2023/01/19 11:15:46;;;;;;;11.45;2.83;;;4.00;99.90;;;;;;5019356;28;20038;-65
2023/01/19 11:18:35;;;;;;;9.10;1.67;;;4.00;99.90;;;;;;5018941;28;20409;-65
2023/01/19 11:21:13;;;;;;;15.40;1.90;;;4.20;99.90;;;;;;5029014;28;20037;-66
2023/01/19 11:23:41;;;;;;;8.40;1.67;;;4.10;99.90;;;;;;5021208;28;20037;-66
2023/01/19 11:26:15;;;;;;;14.10;2.10;;;4.10;99.90;;;;;;5023526;28;20547;-66
2023/01/19 11:28:52;;;;;;;7.90;1.83;;;4.00;99.90;;;;;;5022182;28;20049;-66
2023/01/19 11:31:39;;;;;;;9.23;1.52;;;4.20;99.90;;;;;;5014942;28;20092;-66
2023/01/19 11:34:29;;;;;;;17.63;2.50;;;4.10;99.90;;;;;;5021942;28;20137;-65
2023/01/19 11:36:57;;;;;;;9.00;1.70;;;4.30;99.90;;;;;;5028983;28;20530;-64
2023/01/19 11:39:26;;;;;;;13.00;1.70;;;4.20;99.90;;;;;;5022402;28;20397;-65
2023/01/19 11:42:02;;;;;;;12.20;1.95;;;4.10;99.90;;;;;;5005018;28;20493;-65
2023/01/19 11:44:46;;;;;;;13.73;2.08;;;4.30;99.90;;;;;;5029330;28;20045;-65
2023/01/19 11:47:17;;;;;;;11.00;1.63;;;4.20;99.90;;;;;;5030821;28;20049;-66
2023/01/19 11:50:03;;;;;;;11.07;1.60;;;4.40;99.90;;;;;;5026278;28;21017;-66
2023/01/19 11:52:34;;;;;;;6.35;1.40;;;4.40;99.90;;;;;;5025272;28;20038;-65
2023/01/19 11:55:13;;;;;;;7.75;1.48;;;4.40;99.90;;;;;;5030178;28;20156;-65
2023/01/19 11:57:46;;;;;;;8.68;1.40;;;4.50;99.90;;;;;;5029671;28;20034;-64
2023/01/19 12:00:27;;;;;;;5.13;1.50;;;4.30;99.90;;;;;;5032256;28;20037;-65
2023/01/19 12:03:11;;;;;;;9.38;1.73;;;4.30;99.90;;;;;;5012267;28;20038;-64
2023/01/19 12:05:40;;;;;;;5.65;1.40;;;4.30;99.90;;;;;;5017391;28;20408;-64
2023/01/19 12:08:13;;;;;;;10.18;1.33;;;4.30;99.90;;;;;;5020040;28;20053;-65
2023/01/19 12:10:42;;;;;;;8.90;1.42;;;4.40;99.90;;;;;;5026121;28;20033;-64
2023/01/19 12:13:22;;;;;;;10.40;1.13;;;4.40;99.90;;;;;;5027474;28;20040;-65
2023/01/19 12:15:54;;;;;;;9.23;1.27;;;4.30;99.90;;;;;;5025966;28;20548;-65
2023/01/19 12:18:27;;;;;;;6.47;1.60;;;4.30;99.90;;;;;;5023824;28;20122;-64
2023/01/19 12:20:54;;;;;;;6.53;1.58;;;4.30;99.90;;;;;;5030371;28;20127;-65
2023/01/19 12:23:32;;;;;;;4.90;1.38;;;4.50;99.90;;;;;;5019368;28;20049;-66
2023/01/19 12:26:16;;;;;;;10.63;1.70;;;4.50;99.90;;;;;;5026912;28;20454;-64
2023/01/19 12:28:46;;;;;;;5.57;1.00;;;4.40;99.90;;;;;;5023305;28;20042;-65
2023/01/19 12:31:21;;;;;;;6.17;1.10;;;4.60;99.90;;;;;;5029806;28;20045;-65
2023/01/19 12:33:47;;;;;;;7.03;1.08;;;4.70;99.90;;;;;;5028754;28;20548;-66
2023/01/19 12:36:15;;;;;;;7.82;1.30;;;4.60;99.90;;;;;;5013384;28;20073;-65
2023/01/19 12:38:46;;;;;;;7.63;1.25;;;4.50;99.90;;;;;;5026639;28;20401;-65
2023/01/19 12:41:30;;;;;;;7.68;1.13;;;4.40;99.90;;;;;;5030441;28;20052;-64
2023/01/19 12:44:11;;;;;;;9.05;1.27;;;4.20;99.90;;;;;;5014457;28;20140;-65
2023/01/19 12:46:39;;;;;;;3.33;0.98;;;4.10;99.90;;;;;;5032397;28;20049;-64
2023/01/19 12:49:18;;;;;;;3.97;0.80;;;4.10;99.90;;;;;;5029934;28;20038;-65
2023/01/19 12:51:44;;;;;;;5.03;0.80;;;4.20;99.90;;;;;;5029001;28;20095;-64
2023/01/19 12:54:19;;;;;;;6.20;0.85;;;4.30;99.90;;;;;;5029987;28;20087;-65
2023/01/19 12:56:45;;;;;;;10.48;0.80;;;4.50;99.90;;;;;;5032180;28;20073;-65
2023/01/19 12:59:24;;;;;;;4.38;0.90;;;4.60;99.90;;;;;;5026864;28;20092;-65
2023/01/19 13:02:15;;;;;;;6.18;0.98;;;4.60;99.90;;;;;;5028392;28;20127;-65
2023/01/19 13:05:12;;;;;;;4.93;1.08;;;4.70;99.90;;;;;;5027713;28;20044;-64
2023/01/19 13:08:06;;;;;;;4.55;0.65;;;4.70;99.90;;;;;;5031266;28;20053;-65
2023/01/19 13:11:04;;;;;;;5.85;1.00;;;4.80;99.90;;;;;;5023973;28;20077;-65